sensor_id;sensor_type;location;lat;lon;timestamp;temperature;humidity
67586;SHT31;55785;47.946;20.540;2023-05-31T00:01:28;18.58;55.75
67586;SHT31;55785;47.946;20.540;2023-05-31T00:03:53;18.57;55.69
67586;SHT31;55785;47.946;20.540;2023-05-31T00:06:19;18.53;55.61
67586;SHT31;55785;47.946;20.540;2023-05-31T00:08:44;18.50;55.85
67586;SHT31;55785;47.946;20.540;2023-05-31T00:11:09;18.43;55.96
67586;SHT31;55785;47.946;20.540;2023-05-31T00:13:35;18.43;55.70
67586;SHT31;55785;47.946;20.540;2023-05-31T00:16:00;18.40;55.99
67586;SHT31;55785;47.946;20.540;2023-05-31T00:18:25;18.36;56.41
67586;SHT31;55785;47.946;20.540;2023-05-31T00:20:51;18.24;56.62
67586;SHT31;55785;47.946;20.540;2023-05-31T00:23:16;18.13;56.69
67586;SHT31;55785;47.946;20.540;2023-05-31T00:25:42;18.16;56.82
67586;SHT31;55785;47.946;20.540;2023-05-31T00:28:07;18.20;56.39
67586;SHT31;55785;47.946;20.540;2023-05-31T00:30:32;18.18;56.56
67586;SHT31;55785;47.946;20.540;2023-05-31T00:32:58;18.18;56.37
67586;SHT31;55785;47.946;20.540;2023-05-31T00:35:23;18.13;56.50
67586;SHT31;55785;47.946;20.540;2023-05-31T00:37:49;18.14;56.46
67586;SHT31;55785;47.946;20.540;2023-05-31T00:40:14;18.18;56.33
67586;SHT31;55785;47.946;20.540;2023-05-31T00:42:39;18.16;56.48
67586;SHT31;55785;47.946;20.540;2023-05-31T00:45:05;18.07;56.48
67586;SHT31;55785;47.946;20.540;2023-05-31T00:47:31;18.12;56.35
67586;SHT31;55785;47.946;20.540;2023-05-31T00:49:57;18.07;56.18
67586;SHT31;55785;47.946;20.540;2023-05-31T00:52:24;18.12;56.19
67586;SHT31;55785;47.946;20.540;2023-05-31T00:54:50;18.12;56.06
67586;SHT31;55785;47.946;20.540;2023-05-31T00:57:16;18.10;55.94
67586;SHT31;55785;47.946;20.540;2023-05-31T00:59:41;18.05;56.27
67586;SHT31;55785;47.946;20.540;2023-05-31T01:02:07;18.02;56.40
67586;SHT31;55785;47.946;20.540;2023-05-31T01:04:32;18.05;56.36
67586;SHT31;55785;47.946;20.540;2023-05-31T01:06:59;18.06;56.14
67586;SHT31;55785;47.946;20.540;2023-05-31T01:09:24;18.00;56.21
67586;SHT31;55785;47.946;20.540;2023-05-31T01:11:57;18.00;55.94
67586;SHT31;55785;47.946;20.540;2023-05-31T01:14:36;17.99;56.18
67586;SHT31;55785;47.946;20.540;2023-05-31T01:19:45;17.99;55.99
67586;SHT31;55785;47.946;20.540;2023-05-31T01:27:17;17.82;56.62
67586;SHT31;55785;47.946;20.540;2023-05-31T01:29:43;17.81;56.57
67586;SHT31;55785;47.946;20.540;2023-05-31T01:32:10;17.76;56.66
67586;SHT31;55785;47.946;20.540;2023-05-31T01:34:36;17.71;57.01
67586;SHT31;55785;47.946;20.540;2023-05-31T01:37:01;17.69;56.71
67586;SHT31;55785;47.946;20.540;2023-05-31T01:39:27;17.72;56.69
67586;SHT31;55785;47.946;20.540;2023-05-31T01:41:52;17.72;56.83
67586;SHT31;55785;47.946;20.540;2023-05-31T01:44:19;17.75;56.46
67586;SHT31;55785;47.946;20.540;2023-05-31T01:46:45;17.74;57.25
67586;SHT31;55785;47.946;20.540;2023-05-31T01:49:11;17.71;56.97
67586;SHT31;55785;47.946;20.540;2023-05-31T01:51:37;17.65;57.08
67586;SHT31;55785;47.946;20.540;2023-05-31T01:54:05;17.62;57.03
67586;SHT31;55785;47.946;20.540;2023-05-31T01:56:31;17.58;57.02
67586;SHT31;55785;47.946;20.540;2023-05-31T01:58:57;17.57;57.13
67586;SHT31;55785;47.946;20.540;2023-05-31T02:01:23;17.57;56.75
67586;SHT31;55785;47.946;20.540;2023-05-31T02:03:51;17.59;57.25
67586;SHT31;55785;47.946;20.540;2023-05-31T02:06:17;17.62;56.25
67586;SHT31;55785;47.946;20.540;2023-05-31T02:08:42;17.64;56.72
67586;SHT31;55785;47.946;20.540;2023-05-31T02:11:08;17.55;56.78
67586;SHT31;55785;47.946;20.540;2023-05-31T02:13:34;17.58;56.65
67586;SHT31;55785;47.946;20.540;2023-05-31T02:15:59;17.54;56.76
67586;SHT31;55785;47.946;20.540;2023-05-31T02:18:25;17.49;56.79
67586;SHT31;55785;47.946;20.540;2023-05-31T02:20:50;17.48;56.82
67586;SHT31;55785;47.946;20.540;2023-05-31T02:23:15;17.48;56.99
67586;SHT31;55785;47.946;20.540;2023-05-31T02:25:44;17.54;56.58
67586;SHT31;55785;47.946;20.540;2023-05-31T02:28:09;17.62;56.15
67586;SHT31;55785;47.946;20.540;2023-05-31T02:30:35;17.62;56.05
67586;SHT31;55785;47.946;20.540;2023-05-31T02:33:00;17.58;56.28
67586;SHT31;55785;47.946;20.540;2023-05-31T02:35:26;17.58;55.79
67586;SHT31;55785;47.946;20.540;2023-05-31T02:37:51;17.68;55.51
67586;SHT31;55785;47.946;20.540;2023-05-31T02:40:16;17.65;55.50
67586;SHT31;55785;47.946;20.540;2023-05-31T02:42:42;17.68;55.46
67586;SHT31;55785;47.946;20.540;2023-05-31T02:45:09;17.64;55.78
67586;SHT31;55785;47.946;20.540;2023-05-31T02:47:36;17.68;55.32
67586;SHT31;55785;47.946;20.540;2023-05-31T02:50:02;17.64;55.21
67586;SHT31;55785;47.946;20.540;2023-05-31T02:52:27;17.67;55.46
67586;SHT31;55785;47.946;20.540;2023-05-31T02:54:52;17.64;55.45
67586;SHT31;55785;47.946;20.540;2023-05-31T02:57:18;17.67;55.00
67586;SHT31;55785;47.946;20.540;2023-05-31T02:59:44;17.51;55.66
67586;SHT31;55785;47.946;20.540;2023-05-31T03:02:09;17.52;55.61
67586;SHT31;55785;47.946;20.540;2023-05-31T03:04:35;17.55;55.04
67586;SHT31;55785;47.946;20.540;2023-05-31T03:07:01;17.62;55.27
67586;SHT31;55785;47.946;20.540;2023-05-31T03:09:26;17.64;54.74
67586;SHT31;55785;47.946;20.540;2023-05-31T03:11:52;17.67;54.29
67586;SHT31;55785;47.946;20.540;2023-05-31T03:14:17;17.67;54.31
67586;SHT31;55785;47.946;20.540;2023-05-31T03:16:43;17.61;54.93
67586;SHT31;55785;47.946;20.540;2023-05-31T03:19:08;17.59;54.33
67586;SHT31;55785;47.946;20.540;2023-05-31T03:21:33;17.64;54.97
67586;SHT31;55785;47.946;20.540;2023-05-31T03:23:59;17.61;54.85
67586;SHT31;55785;47.946;20.540;2023-05-31T03:26:24;17.64;54.38
67586;SHT31;55785;47.946;20.540;2023-05-31T03:28:49;17.67;54.29
67586;SHT31;55785;47.946;20.540;2023-05-31T03:31:15;17.57;54.81
67586;SHT31;55785;47.946;20.540;2023-05-31T03:33:40;17.68;54.24
67586;SHT31;55785;47.946;20.540;2023-05-31T03:36:06;17.72;54.18
67586;SHT31;55785;47.946;20.540;2023-05-31T03:38:31;17.74;53.88
67586;SHT31;55785;47.946;20.540;2023-05-31T03:40:56;17.78;54.00
67586;SHT31;55785;47.946;20.540;2023-05-31T03:43:22;17.75;54.67
67586;SHT31;55785;47.946;20.540;2023-05-31T03:45:47;17.74;54.22
67586;SHT31;55785;47.946;20.540;2023-05-31T03:48:13;17.75;54.22
67586;SHT31;55785;47.946;20.540;2023-05-31T03:50:43;17.81;53.70
67586;SHT31;55785;47.946;20.540;2023-05-31T03:53:08;17.76;54.39
67586;SHT31;55785;47.946;20.540;2023-05-31T03:55:33;17.75;54.58
67586;SHT31;55785;47.946;20.540;2023-05-31T03:57:59;17.81;54.40
67586;SHT31;55785;47.946;20.540;2023-05-31T04:00:24;17.83;54.44
67586;SHT31;55785;47.946;20.540;2023-05-31T04:02:50;17.89;54.48
67586;SHT31;55785;47.946;20.540;2023-05-31T04:05:15;17.92;53.62
67586;SHT31;55785;47.946;20.540;2023-05-31T04:07:41;17.93;54.46
67586;SHT31;55785;47.946;20.540;2023-05-31T04:10:07;17.97;53.89
67586;SHT31;55785;47.946;20.540;2023-05-31T04:12:32;17.97;54.43
67586;SHT31;55785;47.946;20.540;2023-05-31T04:14:57;18.03;53.91
67586;SHT31;55785;47.946;20.540;2023-05-31T04:17:23;18.12;54.25
67586;SHT31;55785;47.946;20.540;2023-05-31T04:19:48;18.20;52.60
67586;SHT31;55785;47.946;20.540;2023-05-31T04:22:13;18.18;54.15
67586;SHT31;55785;47.946;20.540;2023-05-31T04:24:39;18.24;52.96
67586;SHT31;55785;47.946;20.540;2023-05-31T04:27:04;18.33;53.49
67586;SHT31;55785;47.946;20.540;2023-05-31T04:29:30;18.38;53.42
67586;SHT31;55785;47.946;20.540;2023-05-31T04:31:56;18.40;53.52
67586;SHT31;55785;47.946;20.540;2023-05-31T04:34:21;18.44;52.72
67586;SHT31;55785;47.946;20.540;2023-05-31T04:36:47;18.47;53.69
67586;SHT31;55785;47.946;20.540;2023-05-31T04:39:12;18.53;53.32
67586;SHT31;55785;47.946;20.540;2023-05-31T04:41:37;18.55;52.17
67586;SHT31;55785;47.946;20.540;2023-05-31T04:44:03;18.60;51.83
67586;SHT31;55785;47.946;20.540;2023-05-31T04:46:28;18.65;52.67
67586;SHT31;55785;47.946;20.540;2023-05-31T04:48:53;18.75;52.55
67586;SHT31;55785;47.946;20.540;2023-05-31T04:51:19;18.69;52.51
67586;SHT31;55785;47.946;20.540;2023-05-31T04:53:45;18.72;52.55
67586;SHT31;55785;47.946;20.540;2023-05-31T04:56:10;18.82;52.98
67586;SHT31;55785;47.946;20.540;2023-05-31T04:58:35;18.87;51.53
67586;SHT31;55785;47.946;20.540;2023-05-31T05:01:01;18.94;52.63
67586;SHT31;55785;47.946;20.540;2023-05-31T05:03:26;19.01;52.45
67586;SHT31;55785;47.946;20.540;2023-05-31T05:05:51;19.05;52.17
67586;SHT31;55785;47.946;20.540;2023-05-31T05:08:17;19.02;52.32
67586;SHT31;55785;47.946;20.540;2023-05-31T05:10:42;19.12;52.21
67586;SHT31;55785;47.946;20.540;2023-05-31T05:13:08;19.18;51.70
67586;SHT31;55785;47.946;20.540;2023-05-31T05:15:33;19.24;52.20
67586;SHT31;55785;47.946;20.540;2023-05-31T05:17:58;19.30;51.64
67586;SHT31;55785;47.946;20.540;2023-05-31T05:20:24;19.34;51.09
67586;SHT31;55785;47.946;20.540;2023-05-31T05:22:50;19.40;51.71
67586;SHT31;55785;47.946;20.540;2023-05-31T05:25:16;19.42;51.91
67586;SHT31;55785;47.946;20.540;2023-05-31T05:27:41;19.47;51.89
67586;SHT31;55785;47.946;20.540;2023-05-31T05:30:07;19.50;49.32
67586;SHT31;55785;47.946;20.540;2023-05-31T05:32:32;19.50;50.05
67586;SHT31;55785;47.946;20.540;2023-05-31T05:34:57;19.59;51.40
67586;SHT31;55785;47.946;20.540;2023-05-31T05:37:23;19.66;50.09
67586;SHT31;55785;47.946;20.540;2023-05-31T05:39:48;19.74;50.25
67586;SHT31;55785;47.946;20.540;2023-05-31T05:42:13;19.78;48.30
67586;SHT31;55785;47.946;20.540;2023-05-31T05:44:39;19.84;50.35
67586;SHT31;55785;47.946;20.540;2023-05-31T05:47:04;19.90;49.99
67586;SHT31;55785;47.946;20.540;2023-05-31T05:49:30;19.97;49.49
67586;SHT31;55785;47.946;20.540;2023-05-31T05:51:55;19.98;49.84
67586;SHT31;55785;47.946;20.540;2023-05-31T05:54:20;20.11;48.79
67586;SHT31;55785;47.946;20.540;2023-05-31T05:56:46;20.14;48.37
67586;SHT31;55785;47.946;20.540;2023-05-31T05:59:11;20.17;50.06
67586;SHT31;55785;47.946;20.540;2023-05-31T06:01:36;20.25;49.43
67586;SHT31;55785;47.946;20.540;2023-05-31T06:04:02;20.32;48.52
67586;SHT31;55785;47.946;20.540;2023-05-31T06:06:27;20.39;49.62
67586;SHT31;55785;47.946;20.540;2023-05-31T06:08:52;20.45;48.91
67586;SHT31;55785;47.946;20.540;2023-05-31T06:11:18;20.53;49.40
67586;SHT31;55785;47.946;20.540;2023-05-31T06:13:43;20.66;49.60
67586;SHT31;55785;47.946;20.540;2023-05-31T06:16:08;20.69;48.95
67586;SHT31;55785;47.946;20.540;2023-05-31T06:18:34;20.83;50.61
67586;SHT31;55785;47.946;20.540;2023-05-31T06:20:59;20.88;49.44
67586;SHT31;55785;47.946;20.540;2023-05-31T06:23:24;20.91;47.66
67586;SHT31;55785;47.946;20.540;2023-05-31T06:25:50;20.81;48.24
67586;SHT31;55785;47.946;20.540;2023-05-31T06:28:15;20.79;47.02
67586;SHT31;55785;47.946;20.540;2023-05-31T06:30:40;20.80;48.36
67586;SHT31;55785;47.946;20.540;2023-05-31T06:33:06;20.83;49.44
67586;SHT31;55785;47.946;20.540;2023-05-31T06:35:31;20.90;48.57
67586;SHT31;55785;47.946;20.540;2023-05-31T06:37:56;20.97;50.15
67586;SHT31;55785;47.946;20.540;2023-05-31T06:40:22;21.12;48.33
67586;SHT31;55785;47.946;20.540;2023-05-31T06:42:47;21.04;47.48
67586;SHT31;55785;47.946;20.540;2023-05-31T06:45:13;21.11;48.80
67586;SHT31;55785;47.946;20.540;2023-05-31T06:47:38;21.23;49.06
67586;SHT31;55785;47.946;20.540;2023-05-31T06:50:03;21.23;47.27
67586;SHT31;55785;47.946;20.540;2023-05-31T06:52:29;21.20;47.18
67586;SHT31;55785;47.946;20.540;2023-05-31T06:54:54;21.24;48.61
67586;SHT31;55785;47.946;20.540;2023-05-31T06:57:20;21.25;46.87
67586;SHT31;55785;47.946;20.540;2023-05-31T06:59:45;21.23;48.44
67586;SHT31;55785;47.946;20.540;2023-05-31T07:02:10;21.30;47.76
67586;SHT31;55785;47.946;20.540;2023-05-31T07:04:36;21.23;45.37
67586;SHT31;55785;47.946;20.540;2023-05-31T07:07:01;21.24;46.47
67586;SHT31;55785;47.946;20.540;2023-05-31T07:09:26;21.42;48.12
67586;SHT31;55785;47.946;20.540;2023-05-31T07:11:52;21.52;45.92
67586;SHT31;55785;47.946;20.540;2023-05-31T07:14:17;21.55;45.71
67586;SHT31;55785;47.946;20.540;2023-05-31T07:16:42;21.35;44.10
67586;SHT31;55785;47.946;20.540;2023-05-31T07:19:08;21.30;44.63
67586;SHT31;55785;47.946;20.540;2023-05-31T07:21:33;21.32;45.15
67586;SHT31;55785;47.946;20.540;2023-05-31T07:23:58;21.30;45.79
67586;SHT31;55785;47.946;20.540;2023-05-31T07:26:24;21.31;46.17
67586;SHT31;55785;47.946;20.540;2023-05-31T07:28:49;21.46;45.67
67586;SHT31;55785;47.946;20.540;2023-05-31T07:31:14;21.51;43.50
67586;SHT31;55785;47.946;20.540;2023-05-31T07:33:40;21.65;45.41
67586;SHT31;55785;47.946;20.540;2023-05-31T07:36:05;21.71;44.16
67586;SHT31;55785;47.946;20.540;2023-05-31T07:38:30;21.75;45.01
67586;SHT31;55785;47.946;20.540;2023-05-31T07:40:56;21.82;45.44
67586;SHT31;55785;47.946;20.540;2023-05-31T07:43:23;22.00;46.64
67586;SHT31;55785;47.946;20.540;2023-05-31T07:45:49;22.09;44.68
67586;SHT31;55785;47.946;20.540;2023-05-31T07:48:15;22.27;44.72
67586;SHT31;55785;47.946;20.540;2023-05-31T07:50:40;22.37;44.59
67586;SHT31;55785;47.946;20.540;2023-05-31T07:53:05;22.45;43.65
67586;SHT31;55785;47.946;20.540;2023-05-31T07:55:31;22.24;43.87
67586;SHT31;55785;47.946;20.540;2023-05-31T07:57:56;22.07;42.63
67586;SHT31;55785;47.946;20.540;2023-05-31T08:00:23;22.17;45.24
67586;SHT31;55785;47.946;20.540;2023-05-31T08:02:48;22.30;45.35
67586;SHT31;55785;47.946;20.540;2023-05-31T08:05:14;22.45;45.85
67586;SHT31;55785;47.946;20.540;2023-05-31T08:07:39;22.45;43.41
67586;SHT31;55785;47.946;20.540;2023-05-31T08:10:05;22.44;44.79
67586;SHT31;55785;47.946;20.540;2023-05-31T08:12:31;22.31;45.06
67586;SHT31;55785;47.946;20.540;2023-05-31T08:14:56;22.34;42.18
67586;SHT31;55785;47.946;20.540;2023-05-31T08:17:21;22.44;45.27
67586;SHT31;55785;47.946;20.540;2023-05-31T08:19:47;22.45;44.26
67586;SHT31;55785;47.946;20.540;2023-05-31T08:22:12;22.52;44.18
67586;SHT31;55785;47.946;20.540;2023-05-31T08:24:37;22.69;46.39
67586;SHT31;55785;47.946;20.540;2023-05-31T08:27:03;22.71;41.34
67586;SHT31;55785;47.946;20.540;2023-05-31T08:29:28;22.75;43.63
67586;SHT31;55785;47.946;20.540;2023-05-31T08:31:54;22.84;44.29
67586;SHT31;55785;47.946;20.540;2023-05-31T08:34:19;22.85;43.33
67586;SHT31;55785;47.946;20.540;2023-05-31T08:36:45;22.84;43.48
67586;SHT31;55785;47.946;20.540;2023-05-31T08:39:10;23.00;45.16
67586;SHT31;55785;47.946;20.540;2023-05-31T08:41:42;23.08;43.22
67586;SHT31;55785;47.946;20.540;2023-05-31T08:44:12;23.15;43.53
67586;SHT31;55785;47.946;20.540;2023-05-31T08:46:39;23.18;43.91
67586;SHT31;55785;47.946;20.540;2023-05-31T08:49:08;23.20;42.65
67586;SHT31;55785;47.946;20.540;2023-05-31T08:51:35;23.12;42.52
67586;SHT31;55785;47.946;20.540;2023-05-31T08:54:02;23.13;43.54
67586;SHT31;55785;47.946;20.540;2023-05-31T08:56:27;23.03;41.47
67586;SHT31;55785;47.946;20.540;2023-05-31T08:58:53;23.13;41.57
67586;SHT31;55785;47.946;20.540;2023-05-31T09:01:19;23.22;42.94
67586;SHT31;55785;47.946;20.540;2023-05-31T09:03:45;23.33;43.94
67586;SHT31;55785;47.946;20.540;2023-05-31T09:06:11;23.33;40.64
67586;SHT31;55785;47.946;20.540;2023-05-31T09:08:37;23.29;41.52
67586;SHT31;55785;47.946;20.540;2023-05-31T09:11:02;23.15;41.41
67586;SHT31;55785;47.946;20.540;2023-05-31T09:13:28;23.09;42.74
67586;SHT31;55785;47.946;20.540;2023-05-31T09:15:53;23.15;42.33
67586;SHT31;55785;47.946;20.540;2023-05-31T09:18:20;23.39;42.69
67586;SHT31;55785;47.946;20.540;2023-05-31T09:20:49;23.66;44.82
67586;SHT31;55785;47.946;20.540;2023-05-31T09:23:17;23.77;42.73
67586;SHT31;55785;47.946;20.540;2023-05-31T09:25:47;23.87;41.42
67586;SHT31;55785;47.946;20.540;2023-05-31T09:28:13;23.91;41.21
67586;SHT31;55785;47.946;20.540;2023-05-31T09:30:39;24.08;43.12
67586;SHT31;55785;47.946;20.540;2023-05-31T09:33:06;24.02;40.82
67586;SHT31;55785;47.946;20.540;2023-05-31T09:35:31;24.09;42.61
67586;SHT31;55785;47.946;20.540;2023-05-31T09:37:56;24.14;41.60
67586;SHT31;55785;47.946;20.540;2023-05-31T09:40:23;24.12;42.79
67586;SHT31;55785;47.946;20.540;2023-05-31T09:42:50;24.00;40.51
67586;SHT31;55785;47.946;20.540;2023-05-31T09:45:17;24.01;43.29
67586;SHT31;55785;47.946;20.540;2023-05-31T09:47:42;24.01;42.41
67586;SHT31;55785;47.946;20.540;2023-05-31T09:50:11;24.04;41.10
67586;SHT31;55785;47.946;20.540;2023-05-31T09:52:37;23.89;42.62
67586;SHT31;55785;47.946;20.540;2023-05-31T09:55:05;24.11;44.77
67586;SHT31;55785;47.946;20.540;2023-05-31T09:57:32;24.37;44.02
67586;SHT31;55785;47.946;20.540;2023-05-31T09:59:58;24.40;42.10
67586;SHT31;55785;47.946;20.540;2023-05-31T10:02:27;24.48;40.25
67586;SHT31;55785;47.946;20.540;2023-05-31T10:04:55;24.45;42.76
67586;SHT31;55785;47.946;20.540;2023-05-31T10:07:20;24.53;39.72
67586;SHT31;55785;47.946;20.540;2023-05-31T10:09:46;24.25;39.47
67586;SHT31;55785;47.946;20.540;2023-05-31T10:12:12;24.19;42.50
67586;SHT31;55785;47.946;20.540;2023-05-31T10:14:42;24.33;41.94
67586;SHT31;55785;47.946;20.540;2023-05-31T10:17:11;24.40;38.79
67586;SHT31;55785;47.946;20.540;2023-05-31T10:19:45;24.43;42.09
67586;SHT31;55785;47.946;20.540;2023-05-31T10:22:14;24.43;38.84
67586;SHT31;55785;47.946;20.540;2023-05-31T10:24:51;24.42;41.47
67586;SHT31;55785;47.946;20.540;2023-05-31T10:27:28;24.32;39.21
67586;SHT31;55785;47.946;20.540;2023-05-31T10:29:56;24.40;40.95
67586;SHT31;55785;47.946;20.540;2023-05-31T10:32:25;24.45;38.15
67586;SHT31;55785;47.946;20.540;2023-05-31T10:34:52;24.43;37.47
67586;SHT31;55785;47.946;20.540;2023-05-31T10:37:18;24.57;41.45
67586;SHT31;55785;47.946;20.540;2023-05-31T10:40:03;24.76;39.23
67586;SHT31;55785;47.946;20.540;2023-05-31T10:45:38;25.25;40.78
67586;SHT31;55785;47.946;20.540;2023-05-31T10:48:20;25.31;37.13
67586;SHT31;55785;47.946;20.540;2023-05-31T10:50:53;24.95;36.19
67586;SHT31;55785;47.946;20.540;2023-05-31T10:53:19;24.81;37.70
67586;SHT31;55785;47.946;20.540;2023-05-31T10:55:46;24.66;39.48
67586;SHT31;55785;47.946;20.540;2023-05-31T10:58:33;24.64;37.40
67586;SHT31;55785;47.946;20.540;2023-05-31T11:01:03;24.60;36.47
67586;SHT31;55785;47.946;20.540;2023-05-31T11:03:29;24.64;40.58
67586;SHT31;55785;47.946;20.540;2023-05-31T11:05:56;24.77;41.50
67586;SHT31;55785;47.946;20.540;2023-05-31T11:08:22;24.87;38.16
67586;SHT31;55785;47.946;20.540;2023-05-31T11:10:48;25.07;41.27
67586;SHT31;55785;47.946;20.540;2023-05-31T11:13:13;25.10;37.84
67586;SHT31;55785;47.946;20.540;2023-05-31T11:15:41;24.94;41.44
67586;SHT31;55785;47.946;20.540;2023-05-31T11:18:30;24.81;40.66
67586;SHT31;55785;47.946;20.540;2023-05-31T11:20:55;25.00;39.71
67586;SHT31;55785;47.946;20.540;2023-05-31T11:23:25;25.14;38.13
67586;SHT31;55785;47.946;20.540;2023-05-31T11:26:29;25.04;39.47
67586;SHT31;55785;47.946;20.540;2023-05-31T11:28:57;25.03;43.03
67586;SHT31;55785;47.946;20.540;2023-05-31T11:34:33;24.97;38.17
67586;SHT31;55785;47.946;20.540;2023-05-31T11:37:01;25.04;36.68
67586;SHT31;55785;47.946;20.540;2023-05-31T11:39:26;25.27;39.64
67586;SHT31;55785;47.946;20.540;2023-05-31T11:41:53;25.37;36.70
67586;SHT31;55785;47.946;20.540;2023-05-31T11:44:45;25.41;38.00
67586;SHT31;55785;47.946;20.540;2023-05-31T11:47:20;25.31;35.32
67586;SHT31;55785;47.946;20.540;2023-05-31T11:49:47;25.11;38.59
67586;SHT31;55785;47.946;20.540;2023-05-31T11:52:19;25.32;41.26
67586;SHT31;55785;47.946;20.540;2023-05-31T11:54:45;25.73;38.25
67586;SHT31;55785;47.946;20.540;2023-05-31T11:57:11;26.06;39.69
67586;SHT31;55785;47.946;20.540;2023-05-31T11:59:37;26.26;36.39
67586;SHT31;55785;47.946;20.540;2023-05-31T12:02:07;26.40;39.09
67586;SHT31;55785;47.946;20.540;2023-05-31T12:04:39;26.58;38.04
67586;SHT31;55785;47.946;20.540;2023-05-31T12:07:14;26.28;35.65
67586;SHT31;55785;47.946;20.540;2023-05-31T12:09:40;26.12;36.97
67586;SHT31;55785;47.946;20.540;2023-05-31T12:12:06;26.03;35.70
67586;SHT31;55785;47.946;20.540;2023-05-31T12:14:32;26.00;37.75
67586;SHT31;55785;47.946;20.540;2023-05-31T12:17:01;26.36;35.85
67586;SHT31;55785;47.946;20.540;2023-05-31T12:19:27;26.58;36.36
67586;SHT31;55785;47.946;20.540;2023-05-31T12:21:52;26.59;36.19
67586;SHT31;55785;47.946;20.540;2023-05-31T12:24:18;26.52;39.10
67586;SHT31;55785;47.946;20.540;2023-05-31T12:26:44;26.37;37.87
67586;SHT31;55785;47.946;20.540;2023-05-31T12:29:11;26.47;35.89
67586;SHT31;55785;47.946;20.540;2023-05-31T12:31:37;26.27;34.73
67586;SHT31;55785;47.946;20.540;2023-05-31T12:34:10;26.20;43.39
67586;SHT31;55785;47.946;20.540;2023-05-31T12:36:43;26.45;42.16
67586;SHT31;55785;47.946;20.540;2023-05-31T12:39:19;26.43;41.23
67586;SHT31;55785;47.946;20.540;2023-05-31T12:41:47;26.21;35.28
67586;SHT31;55785;47.946;20.540;2023-05-31T12:44:17;26.12;37.17
67586;SHT31;55785;47.946;20.540;2023-05-31T12:46:43;25.88;37.48
67586;SHT31;55785;47.946;20.540;2023-05-31T12:49:26;25.94;35.96
67586;SHT31;55785;47.946;20.540;2023-05-31T12:54:24;26.20;35.26
67586;SHT31;55785;47.946;20.540;2023-05-31T12:56:50;26.51;38.70
67586;SHT31;55785;47.946;20.540;2023-05-31T12:59:15;26.65;36.07
67586;SHT31;55785;47.946;20.540;2023-05-31T13:01:41;26.57;33.48
67586;SHT31;55785;47.946;20.540;2023-05-31T13:04:09;26.71;36.42
67586;SHT31;55785;47.946;20.540;2023-05-31T13:06:34;26.58;33.10
67586;SHT31;55785;47.946;20.540;2023-05-31T13:09:00;26.55;36.03
67586;SHT31;55785;47.946;20.540;2023-05-31T13:11:25;26.54;35.76
67586;SHT31;55785;47.946;20.540;2023-05-31T13:13:50;26.45;35.52
67586;SHT31;55785;47.946;20.540;2023-05-31T13:16:16;26.68;36.36
67586;SHT31;55785;47.946;20.540;2023-05-31T13:18:41;26.79;35.24
67586;SHT31;55785;47.946;20.540;2023-05-31T13:21:06;26.69;36.43
67586;SHT31;55785;47.946;20.540;2023-05-31T13:23:32;26.93;35.28
67586;SHT31;55785;47.946;20.540;2023-05-31T13:25:57;27.17;36.70
67586;SHT31;55785;47.946;20.540;2023-05-31T13:28:22;27.42;36.53
67586;SHT31;55785;47.946;20.540;2023-05-31T13:30:48;27.44;34.45
67586;SHT31;55785;47.946;20.540;2023-05-31T13:33:13;27.10;34.27
67586;SHT31;55785;47.946;20.540;2023-05-31T13:35:38;27.07;35.35
67586;SHT31;55785;47.946;20.540;2023-05-31T13:38:04;26.85;34.91
67586;SHT31;55785;47.946;20.540;2023-05-31T13:40:29;26.55;40.67
67586;SHT31;55785;47.946;20.540;2023-05-31T13:42:54;26.49;35.94
67586;SHT31;55785;47.946;20.540;2023-05-31T13:45:20;26.61;36.53
67586;SHT31;55785;47.946;20.540;2023-05-31T13:47:45;26.84;37.13
67586;SHT31;55785;47.946;20.540;2023-05-31T13:50:10;26.81;35.64
67586;SHT31;55785;47.946;20.540;2023-05-31T13:52:36;27.09;35.81
67586;SHT31;55785;47.946;20.540;2023-05-31T13:55:01;27.07;35.47
67586;SHT31;55785;47.946;20.540;2023-05-31T13:57:26;26.92;33.91
67586;SHT31;55785;47.946;20.540;2023-05-31T13:59:52;26.98;37.90
67586;SHT31;55785;47.946;20.540;2023-05-31T14:02:17;26.89;36.82
67586;SHT31;55785;47.946;20.540;2023-05-31T14:04:42;27.00;35.93
67586;SHT31;55785;47.946;20.540;2023-05-31T14:07:08;27.09;35.49
67586;SHT31;55785;47.946;20.540;2023-05-31T14:09:33;27.14;35.12
67586;SHT31;55785;47.946;20.540;2023-05-31T14:11:58;26.95;34.02
67586;SHT31;55785;47.946;20.540;2023-05-31T14:14:24;26.84;35.49
67586;SHT31;55785;47.946;20.540;2023-05-31T14:16:50;26.72;35.49
67586;SHT31;55785;47.946;20.540;2023-05-31T14:19:15;26.75;37.25
67586;SHT31;55785;47.946;20.540;2023-05-31T14:21:40;26.67;35.52
67586;SHT31;55785;47.946;20.540;2023-05-31T14:24:06;26.54;36.21
67586;SHT31;55785;47.946;20.540;2023-05-31T14:26:31;26.30;37.40
67586;SHT31;55785;47.946;20.540;2023-05-31T14:28:56;26.03;36.14
67586;SHT31;55785;47.946;20.540;2023-05-31T14:31:22;25.88;36.36
67586;SHT31;55785;47.946;20.540;2023-05-31T14:33:47;25.79;35.71
67586;SHT31;55785;47.946;20.540;2023-05-31T14:36:12;25.65;35.23
67586;SHT31;55785;47.946;20.540;2023-05-31T14:38:38;25.63;36.14
67586;SHT31;55785;47.946;20.540;2023-05-31T14:41:03;25.53;34.88
67586;SHT31;55785;47.946;20.540;2023-05-31T14:43:29;25.55;35.49
67586;SHT31;55785;47.946;20.540;2023-05-31T14:45:54;25.59;35.99
67586;SHT31;55785;47.946;20.540;2023-05-31T14:48:19;25.55;37.80
67586;SHT31;55785;47.946;20.540;2023-05-31T14:50:45;25.68;35.67
67586;SHT31;55785;47.946;20.540;2023-05-31T14:53:10;25.89;36.09
67586;SHT31;55785;47.946;20.540;2023-05-31T14:55:35;26.10;35.50
67586;SHT31;55785;47.946;20.540;2023-05-31T14:58:01;26.08;36.46
67586;SHT31;55785;47.946;20.540;2023-05-31T15:00:26;26.20;35.69
67586;SHT31;55785;47.946;20.540;2023-05-31T15:02:52;26.33;35.80
67586;SHT31;55785;47.946;20.540;2023-05-31T15:05:17;26.45;33.64
67586;SHT31;55785;47.946;20.540;2023-05-31T15:07:42;26.21;32.70
67586;SHT31;55785;47.946;20.540;2023-05-31T15:10:08;26.08;35.40
67586;SHT31;55785;47.946;20.540;2023-05-31T15:12:33;25.99;34.54
67586;SHT31;55785;47.946;20.540;2023-05-31T15:14:59;25.85;36.07
67586;SHT31;55785;47.946;20.540;2023-05-31T15:17:24;25.70;35.78
67586;SHT31;55785;47.946;20.540;2023-05-31T15:19:49;25.55;34.66
67586;SHT31;55785;47.946;20.540;2023-05-31T15:22:15;25.61;37.08
67586;SHT31;55785;47.946;20.540;2023-05-31T15:24:40;25.55;36.28
67586;SHT31;55785;47.946;20.540;2023-05-31T15:27:05;25.51;35.82